Time;durP1;ratioP1;P1;durP2;ratioP2;P2;SDS_P1;SDS_P2;PMS_P1;PMS_P2;Temp;Humidity;BMP_temperature;BMP_pressure;BME280_temperature;BME280_humidity;BME280_pressure;Samples;Min_cycle;Max_cycle;Signal;HPM_P1;HPM_P2
2023/07/06 00:00:49;;;;;;;2.20;2.10;;;;;;;15.38;87.41;100486.09;4978731;28;20235;-73
2023/07/06 00:03:15;;;;;;;2.30;2.10;;;;;;;15.37;87.05;100508.03;4981414;28;20219;-75
2023/07/06 00:05:44;;;;;;;1.93;1.83;;;;;;;15.37;86.95;100521.19;4975957;28;20196;-74
2023/07/06 00:08:11;;;;;;;1.90;1.73;;;;;;;15.36;86.44;100524.75;4977694;28;20264;-74
2023/07/06 00:10:39;;;;;;;2.03;1.90;;;;;;;15.33;87.21;100529.28;4979060;28;20229;-74
2023/07/06 00:13:05;;;;;;;2.93;2.67;;;;;;;15.34;87.04;100530.97;4964822;28;20680;-74
2023/07/06 00:15:33;;;;;;;3.00;2.30;;;;;;;15.35;87.00;100533.53;4980302;28;20266;-74
2023/07/06 00:18:02;;;;;;;2.83;1.80;;;;;;;15.36;86.88;100540.53;4986816;28;20295;-74
2023/07/06 00:20:29;;;;;;;2.50;2.30;;;;;;;15.37;86.53;100547.50;4968005;28;20602;-74
2023/07/06 00:22:55;;;;;;;2.37;2.17;;;;;;;15.34;86.70;100546.75;4975525;28;20213;-74
2023/07/06 00:25:25;;;;;;;2.53;2.33;;;;;;;15.33;86.57;100537.16;4980153;28;20677;-74
2023/07/06 00:27:53;;;;;;;3.37;2.20;;;;;;;15.28;86.29;100545.19;4978032;28;20664;-74
2023/07/06 00:30:30;;;;;;;2.43;2.13;;;;;;;15.26;86.43;100549.66;4965206;28;20712;-75
2023/07/06 00:32:56;;;;;;;1.80;1.70;;;;;;;15.22;86.36;100548.06;4963821;28;20214;-74
2023/07/06 00:35:24;;;;;;;2.20;2.00;;;;;;;15.23;86.35;100555.03;4974292;28;20637;-74
2023/07/06 00:37:51;;;;;;;2.90;2.30;;;;;;;15.09;86.69;100551.13;4975792;28;20388;-74
2023/07/06 00:40:18;;;;;;;2.07;1.87;;;;;;;15.10;86.52;100546.72;4972949;28;20233;-74
2023/07/06 00:42:44;;;;;;;2.27;2.07;;;;;;;15.06;87.02;100547.75;4975690;28;20526;-74
2023/07/06 00:45:11;;;;;;;2.33;2.07;;;;;;;15.06;87.17;100538.13;4977220;28;20210;-74
2023/07/06 00:47:43;;;;;;;3.23;2.07;;;;;;;15.05;87.34;100546.06;4980072;28;20262;-74
2023/07/06 00:50:14;;;;;;;3.20;2.57;;;;;;;15.06;87.67;100534.59;4978051;28;20292;-74
2023/07/06 00:52:48;;;;;;;2.97;2.40;;;;;;;14.98;87.85;100537.50;4981041;28;20240;-74
2023/07/06 00:55:15;;;;;;;3.27;2.63;;;;;;;15.03;88.21;100516.34;4972939;28;20769;-74
2023/07/06 00:57:43;;;;;;;2.33;2.10;;;;;;;15.08;88.00;100523.16;4974958;28;20204;-74
2023/07/06 01:00:12;;;;;;;2.30;2.10;;;;;;;15.05;88.77;100519.75;4968703;28;20226;-74
2023/07/06 01:02:41;;;;;;;2.50;2.30;;;;;;;15.09;88.38;100524.84;4979796;28;20216;-74
2023/07/06 01:05:09;;;;;;;2.50;2.30;;;;;;;15.14;88.28;100532.56;4975351;28;20206;-74
2023/07/06 01:07:39;;;;;;;2.93;2.63;;;;;;;15.15;88.25;100531.66;4960121;28;20726;-74
2023/07/06 01:10:08;;;;;;;4.50;2.80;;;;;;;15.11;89.34;100503.75;4974090;28;20509;-74
2023/07/06 01:12:35;;;;;;;3.13;2.83;;;;;;;14.91;90.02;100501.00;4967680;28;20207;-73
2023/07/06 01:15:02;;;;;;;3.17;2.87;;;;;;;15.00;90.48;100491.00;4974942;28;20229;-74
2023/07/06 01:17:36;;;;;;;2.83;2.63;;;;;;;15.07;89.49;100499.53;4970340;28;20203;-74
2023/07/06 01:20:15;;;;;;;2.80;2.60;;;;;;;15.17;89.93;100503.53;4969242;28;20238;-74
2023/07/06 01:23:30;;;;;;;2.87;2.50;;;;;;;15.23;89.03;100516.44;4982900;28;20208;-74
2023/07/06 01:26:13;;;;;;;3.30;3.00;;;;;;;15.22;89.99;100508.59;4955427;28;20236;-74
2023/07/06 01:29:00;;;;;;;3.37;3.17;;;;;;;15.27;89.38;100517.19;4972930;28;20201;-74
2023/07/06 01:31:42;;;;;;;3.00;2.80;;;;;;;15.25;90.40;100508.50;4969815;28;20204;-74
2023/07/06 01:34:18;;;;;;;4.27;2.73;;;;;;;15.20;90.28;100508.69;4968036;28;20252;-74
2023/07/06 01:36:49;;;;;;;4.93;2.70;;;;;;;15.17;90.48;100505.31;4982520;28;20249;-74
2023/07/06 01:39:18;;;;;;;4.47;3.00;;;;;;;15.20;91.35;100495.53;4975663;28;20265;-74
2023/07/06 01:41:49;;;;;;;2.83;2.63;;;;;;;15.14;91.31;100485.22;4985549;28;20251;-74
2023/07/06 01:44:17;;;;;;;3.17;2.97;;;;;;;15.15;91.54;100478.22;4959877;28;20220;-74
2023/07/06 01:46:49;;;;;;;3.70;3.33;;;;;;;15.20;91.33;100487.66;4982085;28;20284;-74
2023/07/06 01:49:17;;;;;;;3.63;3.43;;;;;;;15.02;91.26;100490.94;4981888;28;20237;-74
2023/07/06 01:51:52;;;;;;;3.80;3.50;;;;;;;15.06;91.93;100480.28;4974039;28;20663;-74
2023/07/06 01:54:24;;;;;;;4.20;3.80;;;;;;;15.09;91.39;100495.06;4979015;28;20243;-74
2023/07/06 01:56:57;;;;;;;5.03;3.90;;;;;;;15.16;90.67;100509.69;4967810;28;20225;-74
2023/07/06 01:59:28;;;;;;;3.47;3.27;;;;;;;15.22;90.68;100514.75;4978521;28;20236;-74
2023/07/06 02:02:00;;;;;;;4.57;4.17;;;;;;;15.17;90.76;100521.94;4969371;28;20231;-74
2023/07/06 02:04:28;;;;;;;4.40;3.77;;;;;;;15.22;91.26;100516.50;4981198;28;20208;-74
2023/07/06 02:06:55;;;;;;;3.83;3.60;;;;;;;15.24;91.04;100515.56;4981850;28;20202;-74
2023/07/06 02:09:22;;;;;;;4.50;4.20;;;;;;;15.07;91.51;100516.16;4975622;28;20320;-74
2023/07/06 02:11:51;;;;;;;4.90;4.27;;;;;;;15.17;91.43;100514.06;4979652;28;20246;-74
2023/07/06 02:14:19;;;;;;;4.40;4.10;;;;;;;15.11;91.46;100519.53;4980616;28;20256;-74
2023/07/06 02:16:45;;;;;;;5.27;4.87;;;;;;;15.11;92.00;100516.06;4978758;28;20227;-74
2023/07/06 02:19:13;;;;;;;5.30;4.90;;;;;;;15.20;91.88;100511.31;4958891;28;20268;-74
2023/07/06 02:21:39;;;;;;;5.17;4.77;;;;;;;15.22;91.74;100520.00;4954150;28;20659;-74
2023/07/06 02:24:09;;;;;;;5.33;5.03;;;;;;;14.93;93.39;100492.16;4969555;28;20209;-74
2023/07/06 02:26:36;;;;;;;5.77;5.30;;;;;;;15.03;93.38;100474.28;4954198;28;20569;-74
2023/07/06 02:29:02;;;;;;;5.53;5.03;;;;;;;15.09;93.29;100482.78;4969390;28;20206;-74
2023/07/06 02:31:28;;;;;;;6.50;5.97;;;;;;;15.09;93.18;100489.81;4978708;28;20260;-74
2023/07/06 02:33:55;;;;;;;5.50;5.10;;;;;;;15.13;92.75;100487.94;4953989;28;20215;-74
2023/07/06 02:36:23;;;;;;;6.47;5.97;;;;;;;15.04;92.37;100502.25;4965628;28;20286;-74
2023/07/06 02:38:49;;;;;;;5.90;5.50;;;;;;;14.89;94.05;100475.63;4970813;28;20580;-74
2023/07/06 02:41:17;;;;;;;6.00;5.57;;;;;;;14.91;94.29;100467.69;4971992;28;20280;-74
2023/07/06 02:43:43;;;;;;;6.17;5.77;;;;;;;14.86;93.95;100466.97;4966328;28;20291;-74
2023/07/06 02:46:11;;;;;;;5.83;5.33;;;;;;;14.86;93.13;100475.72;4972827;28;20684;-74
2023/07/06 02:48:38;;;;;;;6.30;5.90;;;;;;;14.91;92.66;100493.13;4972687;28;20211;-74
2023/07/06 02:51:04;;;;;;;5.60;5.17;;;;;;;14.89;92.32;100501.06;4972968;28;20733;-74
2023/07/06 02:53:32;;;;;;;4.90;4.60;;;;;;;14.77;92.82;100499.72;4983666;28;20270;-74
2023/07/06 02:55:58;;;;;;;7.10;6.50;;;;;;;14.56;93.06;100490.81;4966006;28;20220;-74
2023/07/06 02:58:27;;;;;;;6.43;5.60;;;;;;;14.69;93.31;100488.63;4974781;28;20206;-74
2023/07/06 03:00:55;;;;;;;7.27;6.67;;;;;;;14.68;93.55;100481.63;4965171;28;20295;-74
2023/07/06 03:03:26;;;;;;;7.77;7.00;;;;;;;14.76;93.45;100487.47;4978665;28;20248;-74
2023/07/06 03:05:53;;;;;;;8.40;7.70;;;;;;;14.78;93.55;100488.28;4972470;28;20205;-74
2023/07/06 03:08:20;;;;;;;8.43;7.70;;;;;;;14.86;92.95;100498.53;4972917;28;20239;-74
2023/07/06 03:10:48;;;;;;;9.30;8.47;;;;;;;14.87;92.86;100506.38;4972694;28;20225;-74
2023/07/06 03:13:15;;;;;;;10.13;9.33;;;;;;;14.80;93.69;100496.97;4980676;28;20208;-74
2023/07/06 03:15:42;;;;;;;9.83;9.07;;;;;;;14.80;93.84;100496.97;4980687;28;20224;-74
2023/07/06 03:18:08;;;;;;;9.37;8.67;;;;;;;14.81;94.30;100492.59;4980640;28;20269;-74
2023/07/06 03:20:36;;;;;;;8.70;8.00;;;;;;;14.81;94.25;100493.44;4964131;28;20248;-74
2023/07/06 03:23:03;;;;;;;9.00;8.17;;;;;;;14.80;94.39;100501.38;4979351;28;20208;-74
2023/07/06 03:25:30;;;;;;;9.13;8.40;;;;;;;14.85;93.93;100502.94;4964171;28;20206;-74
2023/07/06 03:27:58;;;;;;;9.93;9.07;;;;;;;14.89;93.64;100522.09;4968856;28;20255;-74
2023/07/06 03:30:28;;;;;;;8.87;8.07;;;;;;;14.91;93.65;100525.50;4982663;28;20266;-74
2023/07/06 03:32:55;;;;;;;8.77;8.17;;;;;;;15.01;93.42;100526.03;4976381;28;20199;-74
2023/07/06 03:35:23;;;;;;;8.97;8.10;;;;;;;15.01;92.97;100536.56;4971314;28;20694;-74
2023/07/06 03:37:50;;;;;;;8.33;7.73;;;;;;;15.00;92.72;100546.19;4982997;28;20208;-74
2023/07/06 03:40:16;;;;;;;9.30;8.47;;;;;;;15.03;92.71;100561.03;4983854;28;20235;-74
2023/07/06 03:42:44;;;;;;;9.00;8.40;;;;;;;14.93;93.43;100538.59;4969344;28;20205;-74
2023/07/06 03:45:14;;;;;;;9.90;9.07;;;;;;;14.91;93.80;100538.66;4976572;28;20205;-74
2023/07/06 03:47:42;;;;;;;10.13;9.23;;;;;;;14.93;93.47;100533.34;4979845;28;20709;-74
2023/07/06 03:50:09;;;;;;;9.07;8.47;;;;;;;14.90;94.30;100534.28;4987221;28;20227;-74
2023/07/06 03:52:37;;;;;;;9.43;8.70;;;;;;;14.85;94.03;100534.47;4968269;28;20571;-74
2023/07/06 03:55:08;;;;;;;10.87;9.97;;;;;;;14.72;95.21;100506.91;4973289;28;20209;-74
2023/07/06 03:57:34;;;;;;;10.60;9.77;;;;;;;14.83;94.64;100515.25;4967393;28;20233;-74
2023/07/06 04:00:01;;;;;;;10.33;9.43;;;;;;;14.83;94.82;100517.91;4976037;28;20278;-74
2023/07/06 04:02:28;;;;;;;11.07;10.17;;;;;;;14.86;94.48;100532.69;4985636;28;20617;-74
2023/07/06 04:04:55;;;;;;;11.40;10.40;;;;;;;14.93;93.98;100538.59;4987361;28;20264;-73
2023/07/06 04:07:22;;;;;;;10.80;9.80;;;;;;;14.81;94.97;100524.13;4985179;28;20597;-74
2023/07/06 04:09:48;;;;;;;11.40;10.50;;;;;;;14.50;96.64;100496.25;4972584;28;20225;-74
2023/07/06 04:12:15;;;;;;;10.17;9.47;;;;;;;14.46;98.16;100479.72;4972497;28;20260;-72
2023/07/06 04:14:43;;;;;;;10.17;9.37;;;;;;;14.62;97.73;100466.09;4972371;28;20217;-75
2023/07/06 04:17:10;;;;;;;10.73;9.87;;;;;;;14.62;97.24;100485.34;4971662;28;20224;-73
2023/07/06 04:19:38;;;;;;;11.30;10.43;;;;;;;14.39;98.85;100462.47;4972283;28;20225;-73
2023/07/06 04:22:05;;;;;;;10.83;10.03;;;;;;;14.55;98.08;100481.19;4972432;28;20209;-74
2023/07/06 04:24:31;;;;;;;10.43;9.67;;;;;;;14.63;97.49;100504.59;4960333;28;20208;-74
2023/07/06 04:26:59;;;;;;;9.97;9.27;;;;;;;14.70;97.25;100503.47;4964169;28;20582;-74
2023/07/06 04:29:26;;;;;;;9.37;8.67;;;;;;;14.73;97.60;100511.25;4965390;28;20232;-74
2023/07/06 04:31:55;;;;;;;10.97;10.03;;;;;;;14.48;98.00;100501.53;4975784;28;20254;-75
2023/07/06 04:34:21;;;;;;;10.80;9.87;;;;;;;14.57;97.41;100508.31;4983514;28;20200;-74
2023/07/06 04:36:49;;;;;;;9.80;9.10;;;;;;;14.66;96.72;100530.75;4981944;28;20225;-75
2023/07/06 04:39:15;;;;;;;9.33;8.40;;;;;;;14.77;96.34;100538.28;4975846;28;20303;-74
2023/07/06 04:41:43;;;;;;;9.17;8.57;;;;;;;14.88;96.35;100544.00;4983413;28;20200;-74
2023/07/06 04:44:09;;;;;;;10.03;9.20;;;;;;;14.92;95.86;100550.88;4977787;28;20208;-74
2023/07/06 04:46:36;;;;;;;9.80;8.97;;;;;;;15.00;95.43;100572.47;4974798;28;20268;-74
2023/07/06 04:49:03;;;;;;;9.97;8.33;;;;;;;15.05;94.55;100586.34;4982611;28;20807;-74
2023/07/06 04:51:30;;;;;;;8.90;8.10;;;;;;;15.06;94.40;100602.97;4975390;28;20206;-74
2023/07/06 04:53:58;;;;;;;9.10;8.37;;;;;;;14.93;93.54;100623.56;4974965;28;20208;-74
2023/07/06 04:56:25;;;;;;;8.57;7.97;;;;;;;15.02;93.55;100617.13;4974155;28;20279;-74
2023/07/06 04:58:53;;;;;;;8.60;7.97;;;;;;;15.09;93.63;100623.91;4979660;28;20201;-74
2023/07/06 05:01:22;;;;;;;10.37;8.10;;;;;;;15.09;92.78;100637.03;4970165;28;20592;-74
2023/07/06 05:03:49;;;;;;;8.60;7.80;;;;;;;15.06;92.57;100643.28;4973471;28;20219;-73
2023/07/06 05:06:15;;;;;;;8.70;8.10;;;;;;;15.04;92.30;100658.25;4974686;28;20292;-74
2023/07/06 05:08:43;;;;;;;8.60;7.90;;;;;;;14.86;93.06;100641.28;4974717;28;20541;-74
2023/07/06 05:11:11;;;;;;;7.50;6.90;;;;;;;14.95;93.63;100629.63;4981399;28;20231;-73
2023/07/06 05:13:38;;;;;;;7.90;7.20;;;;;;;14.93;94.09;100609.56;4969767;28;20237;-74
2023/07/06 05:16:05;;;;;;;7.10;6.50;;;;;;;14.97;93.79;100612.03;4980254;28;20323;-74
2023/07/06 05:18:31;;;;;;;6.60;6.10;;;;;;;14.94;93.28;100632.31;4976047;28;20665;-74
2023/07/06 05:20:58;;;;;;;6.83;6.23;;;;;;;14.91;92.94;100635.91;4967750;28;20221;-73
2023/07/06 05:23:27;;;;;;;6.40;5.80;;;;;;;14.80;94.38;100609.97;4977765;28;20203;-74
2023/07/06 05:25:54;;;;;;;7.20;6.37;;;;;;;14.71;94.45;100612.94;4966665;28;20208;-74
2023/07/06 05:28:22;;;;;;;6.63;6.03;;;;;;;14.59;95.78;100587.91;4974097;28;20721;-74
2023/07/06 05:30:49;;;;;;;6.63;6.13;;;;;;;14.74;96.09;100577.78;4970026;28;20767;-74
2023/07/06 05:33:15;;;;;;;6.10;5.53;;;;;;;14.88;96.26;100579.06;4970200;28;20731;-74
2023/07/06 05:35:42;;;;;;;7.00;6.40;;;;;;;14.96;95.59;100583.16;4981840;28;20212;-74
2023/07/06 05:38:10;;;;;;;6.73;6.13;;;;;;;15.06;95.31;100597.69;4976462;28;20237;-74
2023/07/06 05:40:37;;;;;;;6.17;5.50;;;;;;;15.11;94.21;100621.22;4964879;28;20252;-74
2023/07/06 05:43:03;;;;;;;5.70;5.17;;;;;;;15.04;94.70;100626.69;4976787;28;20204;-74
2023/07/06 05:45:31;;;;;;;5.80;5.40;;;;;;;15.02;94.58;100625.00;4979750;28;20254;-74
2023/07/06 05:47:57;;;;;;;6.03;5.53;;;;;;;15.14;94.97;100614.06;4973101;28;20685;-74
2023/07/06 05:50:24;;;;;;;5.40;5.00;;;;;;;15.23;93.72;100641.81;4976355;28;20709;-73
2023/07/06 05:52:50;;;;;;;5.67;5.17;;;;;;;15.37;93.38;100657.97;4985459;28;20283;-73
2023/07/06 05:55:17;;;;;;;5.87;5.27;;;;;;;15.47;93.40;100669.03;4965157;28;20703;-73
2023/07/06 05:57:44;;;;;;;6.17;5.37;;;;;;;15.40;91.89;100691.19;4959753;28;20286;-74
2023/07/06 06:00:11;;;;;;;8.73;5.40;;;;;;;15.54;91.84;100703.88;4973586;28;20236;-78
2023/07/06 06:02:42;;;;;;;5.90;5.40;;;;;;;15.62;91.40;100710.59;4980049;28;20572;-78
2023/07/06 06:05:09;;;;;;;5.90;5.40;;;;;;;15.46;90.40;100725.19;4984495;28;21089;-79
2023/07/06 06:07:35;;;;;;;5.93;4.70;;;;;;;15.61;91.37;100722.00;4981224;28;20575;-79
2023/07/06 06:10:03;;;;;;;5.50;5.00;;;;;;;15.71;91.12;100730.44;4984660;28;20282;-79
2023/07/06 06:12:31;;;;;;;5.07;4.67;;;;;;;15.80;90.23;100750.38;4965725;28;20671;-79
2023/07/06 06:14:58;;;;;;;5.30;4.80;;;;;;;15.76;89.05;100767.19;4964175;28;20212;-79
2023/07/06 06:17:26;;;;;;;5.40;4.80;;;;;;;15.75;89.56;100760.19;4986265;28;20275;-77
2023/07/06 06:19:54;;;;;;;4.97;4.57;;;;;;;15.75;90.19;100758.41;4982387;28;20236;-80
2023/07/06 06:22:21;;;;;;;5.23;4.83;;;;;;;15.81;89.96;100770.50;4966604;28;20205;-79
2023/07/06 06:24:48;;;;;;;5.13;4.63;;;;;;;15.95;89.91;100775.28;4967270;28;20205;-79
2023/07/06 06:27:16;;;;;;;4.67;4.30;;;;;;;15.95;88.97;100793.69;4964331;28;20297;-79
2023/07/06 06:29:43;;;;;;;7.20;4.97;;;;;;;15.84;88.39;100815.16;4978157;28;20561;-79
2023/07/06 06:32:11;;;;;;;5.70;4.80;;;;;;;15.90;87.89;100820.19;4984886;28;20211;-78
2023/07/06 06:34:37;;;;;;;5.10;4.70;;;;;;;15.99;88.42;100822.50;4962096;28;20213;-78
2023/07/06 06:37:06;;;;;;;5.57;5.07;;;;;;;16.08;89.10;100821.31;4959303;28;20314;-80
2023/07/06 06:39:35;;;;;;;8.47;5.30;;;;;;;16.16;88.61;100816.63;4967358;28;20291;-80
2023/07/06 06:42:02;;;;;;;6.30;5.33;;;;;;;16.18;87.90;100827.97;4981907;28;20213;-81
2023/07/06 06:44:30;;;;;;;7.13;4.90;;;;;;;16.22;87.95;100841.91;4958384;28;20552;-81
2023/07/06 06:46:58;;;;;;;5.23;4.73;;;;;;;16.23;87.53;100854.13;4982312;28;20264;-79
2023/07/06 06:49:25;;;;;;;5.37;4.90;;;;;;;16.19;87.08;100861.28;4975415;28;20305;-80
2023/07/06 06:51:52;;;;;;;5.10;4.60;;;;;;;16.14;86.86;100879.03;4978598;28;20235;-80
2023/07/06 06:54:20;;;;;;;6.40;5.33;;;;;;;16.07;87.25;100872.25;4977673;28;20209;-78
2023/07/06 06:56:46;;;;;;;4.53;4.13;;;;;;;16.12;88.32;100848.41;4969678;28;20232;-80
2023/07/06 06:59:13;;;;;;;5.57;5.10;;;;;;;16.23;88.63;100833.94;4979385;28;20238;-80
2023/07/06 07:01:40;;;;;;;4.97;4.50;;;;;;;16.26;87.60;100843.50;4969865;28;20746;-79
2023/07/06 07:04:09;;;;;;;6.33;4.50;;;;;;;16.14;87.77;100852.72;4970232;28;20224;-79
2023/07/06 07:06:36;;;;;;;4.70;4.17;;;;;;;16.20;87.87;100856.91;4975229;28;20296;-79
2023/07/06 07:09:04;;;;;;;6.60;5.07;;;;;;;16.22;87.20;100863.81;4985500;28;20212;-80
2023/07/06 07:11:32;;;;;;;4.00;3.70;;;;;;;16.17;87.24;100862.25;4977581;28;20214;-80
2023/07/06 07:13:59;;;;;;;4.87;4.40;;;;;;;16.27;87.66;100859.28;4977830;28;20255;-80
2023/07/06 07:16:25;;;;;;;5.40;4.20;;;;;;;16.43;89.04;100830.59;4977998;28;20240;-80
2023/07/06 07:18:51;;;;;;;4.90;4.33;;;;;;;16.54;88.03;100843.34;4980178;28;20258;-80
2023/07/06 07:21:19;;;;;;;4.57;4.17;;;;;;;16.59;86.15;100901.16;4983058;28;20232;-80
2023/07/06 07:23:48;;;;;;;4.17;3.77;;;;;;;16.68;85.58;100908.72;4984152;28;20299;-80
2023/07/06 07:26:17;;;;;;;4.73;4.23;;;;;;;16.75;84.38;100936.59;4969611;28;20206;-79
2023/07/06 07:28:47;;;;;;;5.33;3.87;;;;;;;16.70;83.27;100971.94;4984625;28;20673;-80
2023/07/06 07:31:14;;;;;;;8.07;4.10;;;;;;;16.77;85.03;100950.59;4964964;28;20237;-80
2023/07/06 07:33:41;;;;;;;5.00;3.70;;;;;;;16.57;83.09;100987.31;4987201;28;20570;-80
2023/07/06 07:36:10;;;;;;;6.20;4.60;;;;;;;16.60;82.23;100992.50;4977003;28;20220;-80
2023/07/06 07:38:37;;;;;;;4.13;3.77;;;;;;;16.68;83.36;100987.81;4978890;28;20570;-80
2023/07/06 07:41:06;;;;;;;4.23;3.83;;;;;;;16.74;83.64;100976.19;4977677;28;20256;-80
2023/07/06 07:43:34;;;;;;;4.70;4.13;;;;;;;16.83;83.79;100974.13;4985800;28;20677;-80
2023/07/06 07:46:03;;;;;;;4.50;4.10;;;;;;;16.97;84.31;100967.50;4987092;28;20244;-80
2023/07/06 07:48:32;;;;;;;5.13;4.30;;;;;;;17.07;82.47;100975.00;4987310;28;20245;-80
2023/07/06 07:51:02;;;;;;;4.43;4.03;;;;;;;17.18;81.95;101011.50;4972948;28;20252;-79
2023/07/06 07:53:32;;;;;;;4.80;4.33;;;;;;;17.15;79.17;101074.09;4966619;28;20223;-79
2023/07/06 07:55:59;;;;;;;4.37;3.90;;;;;;;17.18;78.19;101122.31;4974247;28;20275;-79
2023/07/06 07:58:27;;;;;;;4.27;3.90;;;;;;;17.33;78.67;101128.00;4974583;28;20229;-79
2023/07/06 08:00:56;;;;;;;5.07;4.10;;;;;;;17.25;77.79;101123.84;4978751;28;20215;-77
2023/07/06 08:03:25;;;;;;;5.40;4.40;;;;;;;17.21;77.53;101143.34;5001693;28;20277;-77
2023/07/06 08:05:52;;;;;;;3.87;3.53;;;;;;;17.36;77.99;101144.56;4997090;28;20236;-77
2023/07/06 08:08:19;;;;;;;4.77;4.27;;;;;;;17.44;76.53;101137.25;4995349;28;20242;-77
2023/07/06 08:10:46;;;;;;;3.90;3.60;;;;;;;17.44;76.19;101182.09;4988582;28;20243;-78
2023/07/06 08:13:12;;;;;;;5.63;4.20;;;;;;;17.64;77.43;101160.25;4991743;28;20205;-78
2023/07/06 08:15:39;;;;;;;4.33;3.83;;;;;;;17.71;77.71;101150.31;4976176;28;20683;-79
2023/07/06 08:18:07;;;;;;;4.47;3.10;;;;;;;17.86;75.99;101185.91;4988473;28;20274;-79
2023/07/06 08:20:35;;;;;;;4.33;3.93;;;;;;;17.65;74.86;101219.22;4979882;28;20242;-77
2023/07/06 08:23:03;;;;;;;5.30;3.70;;;;;;;17.62;75.11;101229.88;4981465;28;20588;-79
2023/07/06 08:25:37;;;;;;;4.47;3.73;;;;;;;17.36;76.21;101210.56;4981279;28;20293;-78
2023/07/06 08:28:04;;;;;;;4.80;3.53;;;;;;;17.52;77.19;101163.38;4968119;28;20212;-79
2023/07/06 08:30:30;;;;;;;3.70;3.40;;;;;;;17.42;77.57;101144.34;4960960;28;20288;-78
2023/07/06 08:32:56;;;;;;;5.07;3.33;;;;;;;17.38;77.82;101133.94;4989967;28;20202;-77
2023/07/06 08:35:23;;;;;;;3.57;3.27;;;;;;;17.31;77.33;101124.53;4970036;28;20211;-78
2023/07/06 08:37:51;;;;;;;3.47;3.17;;;;;;;17.37;77.01;101124.31;4986874;28;20231;-79
2023/07/06 08:40:27;;;;;;;4.37;3.20;;;;;;;17.31;76.47;101156.22;4987853;28;20247;-78
2023/07/06 08:42:55;;;;;;;4.10;3.20;;;;;;;17.40;77.13;101137.38;4984710;28;20206;-79
2023/07/06 08:45:24;;;;;;;3.43;3.13;;;;;;;17.56;77.44;101143.84;4974726;28;20214;-78
2023/07/06 08:47:52;;;;;;;3.97;2.60;;;;;;;17.75;75.52;101182.75;4979156;28;20253;-79
2023/07/06 08:50:26;;;;;;;5.40;2.87;;;;;;;17.62;74.57;101228.09;4983163;28;20287;-78
2023/07/06 08:52:54;;;;;;;3.37;2.70;;;;;;;17.66;74.96;101218.31;4987980;28;20259;-79
2023/07/06 08:55:22;;;;;;;5.37;2.93;;;;;;;17.66;74.84;101210.38;4980294;28;20206;-78
2023/07/06 08:57:49;;;;;;;3.97;3.00;;;;;;;17.63;74.09;101219.25;4964427;28;20700;-78
2023/07/06 09:00:21;;;;;;;4.23;2.77;;;;;;;17.54;74.65;101232.81;4983573;28;20290;-79
2023/07/06 09:02:49;;;;;;;3.57;2.73;;;;;;;17.55;73.77;101244.22;4970885;28;20234;-78
2023/07/06 09:05:16;;;;;;;3.73;2.63;;;;;;;17.64;74.21;101244.75;4983222;28;20212;-79
2023/07/06 09:07:45;;;;;;;2.70;2.40;;;;;;;17.68;72.93;101264.00;4969529;28;20207;-78
2023/07/06 09:10:17;;;;;;;4.03;2.13;;;;;;;17.61;70.11;101341.69;4983953;28;20235;-78
2023/07/06 09:12:44;;;;;;;2.17;2.00;;;;;;;17.67;68.77;101428.63;4984933;28;20214;-79
2023/07/06 09:15:15;;;;;;;3.40;2.20;;;;;;;17.82;69.15;101419.34;4974011;28;20209;-78
2023/07/06 09:17:46;;;;;;;3.17;2.10;;;;;;;17.98;70.75;101399.44;4988700;28;20254;-78
2023/07/06 09:20:13;;;;;;;3.90;2.23;;;;;;;18.15;69.92;101375.03;4974140;28;20263;-79
2023/07/06 09:22:40;;;;;;;2.83;2.30;;;;;;;18.29;68.96;101379.84;4969450;28;20210;-78
2023/07/06 09:25:17;;;;;;;2.77;2.43;;;;;;;18.25;67.67;101447.84;4986662;28;20206;-78
2023/07/06 09:27:47;;;;;;;3.30;2.50;;;;;;;18.11;66.38;101473.84;4971445;28;20207;-78
2023/07/06 09:30:29;;;;;;;2.60;2.27;;;;;;;18.27;66.89;101479.47;4980008;28;20253;-78
2023/07/06 09:33:04;;;;;;;2.43;2.17;;;;;;;18.33;65.16;101540.06;4982077;28;20215;-77
2023/07/06 09:35:31;;;;;;;3.00;1.80;;;;;;;18.31;65.13;101573.59;4972260;28;20215;-76
2023/07/06 09:37:58;;;;;;;2.73;1.90;;;;;;;18.51;65.99;101541.19;4984732;28;20685;-78
2023/07/06 09:40:30;;;;;;;3.63;2.53;;;;;;;18.54;65.71;101519.09;4977168;28;20254;-79
2023/07/06 09:42:56;;;;;;;3.70;2.60;;;;;;;18.59;66.24;101520.69;4982161;28;20199;-78
2023/07/06 09:45:25;;;;;;;4.17;2.60;;;;;;;18.62;66.83;101504.69;4977444;28;20203;-78
2023/07/06 09:47:55;;;;;;;2.63;2.40;;;;;;;18.54;68.07;101451.22;4985823;28;20199;-79
2023/07/06 09:50:27;;;;;;;3.07;1.93;;;;;;;18.61;68.04;101421.00;4983145;28;20231;-79
2023/07/06 09:52:54;;;;;;;3.00;2.10;;;;;;;18.60;65.44;101495.94;4977909;28;20206;-79
2023/07/06 09:55:25;;;;;;;2.37;1.83;;;;;;;18.60;62.92;101555.91;4979848;28;20211;-79
2023/07/06 09:57:52;;;;;;;3.17;2.20;;;;;;;18.63;64.08;101574.31;4978455;28;20292;-78
2023/07/06 10:00:22;;;;;;;2.17;1.93;;;;;;;18.54;64.39;101583.41;4982866;28;20233;-78
2023/07/06 10:03:00;;;;;;;2.57;1.90;;;;;;;18.60;62.92;101604.38;4965827;28;20854;-79
2023/07/06 10:05:35;;;;;;;3.53;1.97;;;;;;;18.52;61.58;101632.84;4980650;28;20650;-78
2023/07/06 10:08:11;;;;;;;4.17;1.53;;;;;;;18.64;62.19;101631.59;4962931;28;20715;-77
2023/07/06 10:10:49;;;;;;;1.70;1.53;;;;;;;18.89;62.41;101610.50;4986301;28;20256;-78
2023/07/06 10:13:27;;;;;;;2.30;1.83;;;;;;;19.08;61.48;101628.34;4979086;28;20210;-79
2023/07/06 10:15:59;;;;;;;1.70;1.60;;;;;;;19.22;62.88;101624.28;4978383;28;20219;-78
2023/07/06 10:18:30;;;;;;;2.73;1.70;;;;;;;19.20;61.29;101644.66;4980521;28;20255;-78
2023/07/06 10:21:04;;;;;;;2.53;1.93;;;;;;;19.29;62.19;101621.44;4984489;28;20286;-79
2023/07/06 10:23:36;;;;;;;3.20;1.70;;;;;;;19.27;60.69;101645.31;4985871;28;20271;-78
2023/07/06 10:26:11;;;;;;;2.10;1.80;;;;;;;19.27;61.15;101649.75;4975245;28;20212;-79
2023/07/06 10:28:43;;;;;;;2.10;1.50;;;;;;;19.26;61.02;101640.91;4975618;28;20201;-78
2023/07/06 10:31:16;;;;;;;1.47;1.37;;;;;;;19.25;57.22;101722.13;4979015;28;20250;-78
2023/07/06 10:33:49;;;;;;;1.90;1.30;;;;;;;19.39;56.85;101793.16;4984404;28;20452;-79
2023/07/06 10:36:16;;;;;;;2.33;1.40;;;;;;;19.61;57.45;101789.75;4971403;28;20211;-78
2023/07/06 10:38:43;;;;;;;3.90;1.73;;;;;;;19.65;57.17;101776.34;4986853;28;20227;-78
2023/07/06 10:41:22;;;;;;;2.70;1.43;;;;;;;19.50;56.49;101821.91;4983044;28;20224;-77
2023/07/06 10:43:51;;;;;;;4.50;1.83;;;;;;;19.56;57.77;101804.94;4967958;28;20357;-79
2023/07/06 10:46:31;;;;;;;2.90;1.50;;;;;;;19.62;60.98;101715.53;4977190;28;20599;-78
2023/07/06 10:48:59;;;;;;;2.07;1.90;;;;;;;19.81;62.12;101624.81;4985926;28;20199;-79
2023/07/06 10:51:27;;;;;;;3.27;1.50;;;;;;;19.91;57.73;101718.91;4978266;28;20708;-79
2023/07/06 10:54:10;;;;;;;1.50;1.40;;;;;;;20.21;58.37;101731.94;4977753;28;20681;-79
2023/07/06 10:56:41;;;;;;;2.23;1.80;;;;;;;20.21;56.70;101772.56;4967422;28;20223;-79
2023/07/06 10:59:15;;;;;;;4.10;1.90;;;;;;;20.18;55.56;101817.75;4986331;28;20286;-78
2023/07/06 11:01:43;;;;;;;2.10;1.90;;;;;;;20.17;56.74;101802.75;4985819;28;20206;-79
2023/07/06 11:04:43;;;;;;;2.53;1.90;;;;;;;20.22;56.18;101792.88;4961216;28;20224;-79
2023/07/06 11:07:11;;;;;;;2.23;2.03;;;;;;;20.57;57.97;101744.66;4969251;28;20211;-78
2023/07/06 11:09:47;;;;;;;1.50;1.40;;;;;;;20.76;56.10;101796.13;4979133;28;20280;-78
2023/07/06 11:12:19;;;;;;;3.73;1.63;;;;;;;20.92;54.49;101857.41;4977938;28;20222;-79
2023/07/06 11:14:50;;;;;;;3.47;1.57;;;;;;;21.02;55.75;101842.00;4977833;28;20241;-78
2023/07/06 11:17:30;;;;;;;3.07;1.90;;;;;;;20.90;54.20;101866.38;4977643;28;20667;-78
2023/07/06 11:20:01;;;;;;;2.13;1.70;;;;;;;20.81;54.33;101892.34;4977327;28;20227;-78
2023/07/06 11:22:29;;;;;;;3.03;2.83;;;;;;;20.91;55.43;101841.53;4978032;28;20263;-78
2023/07/06 11:24:59;;;;;;;2.30;1.80;;;;;;;21.03;53.93;101889.72;4978293;28;20212;-78
2023/07/06 11:27:30;;;;;;;3.60;1.93;;;;;;;21.16;53.49;101897.19;4978112;28;20245;-78
2023/07/06 11:30:06;;;;;;;2.70;1.63;;;;;;;21.11;52.56;101913.31;4977697;28;20307;-79
2023/07/06 11:32:39;;;;;;;1.40;1.33;;;;;;;21.16;52.62;101943.19;4977639;28;20203;-78